createdAt,value
2017-10-17T00:00:16.444Z,88.00
2017-10-17T00:02:43.937Z,88.00
2017-10-17T00:05:12.188Z,87.90
2017-10-17T00:07:39.680Z,87.80
2017-10-17T00:10:07.942Z,88.00
2017-10-17T00:12:36.187Z,88.10
2017-10-17T00:15:03.696Z,88.10
2017-10-17T00:17:31.949Z,88.10
2017-10-17T00:20:00.235Z,88.80
2017-10-17T00:22:28.522Z,88.10
2017-10-17T00:25:03.344Z,88.10
2017-10-17T00:27:31.612Z,88.90
2017-10-17T00:29:59.895Z,88.30
2017-10-17T00:32:35.148Z,89.00
2017-10-17T00:35:03.408Z,88.40
2017-10-17T00:37:30.888Z,88.20
2017-10-17T00:39:59.152Z,88.20
2017-10-17T00:42:26.648Z,88.20
2017-10-17T00:44:54.160Z,88.40
2017-10-17T00:47:22.404Z,89.40
2017-10-17T00:49:49.881Z,88.60
2017-10-17T00:52:17.383Z,88.60
2017-10-17T00:54:44.867Z,88.50
2017-10-17T00:57:12.380Z,88.60
2017-10-17T00:59:40.633Z,88.60
2017-10-17T01:02:08.117Z,88.50
2017-10-17T01:04:36.372Z,88.50
2017-10-17T01:07:03.945Z,88.50
2017-10-17T01:09:32.219Z,88.60
2017-10-17T01:11:59.691Z,88.60
2017-10-17T01:14:27.939Z,88.40
2017-10-17T01:16:55.522Z,88.40
2017-10-17T01:19:23.769Z,88.30
2017-10-17T01:21:51.288Z,88.30
2017-10-17T01:24:18.780Z,88.40
2017-10-17T01:26:46.283Z,88.30
2017-10-17T01:29:14.544Z,88.30
2017-10-17T01:31:42.797Z,88.20
2017-10-17T01:34:10.316Z,88.20
2017-10-17T01:36:37.789Z,88.30
2017-10-17T01:39:05.280Z,88.40
2017-10-17T01:41:32.778Z,88.40
2017-10-17T01:44:06.783Z,88.30
2017-10-17T01:46:38.768Z,88.10
2017-10-17T01:49:10.874Z,88.10
2017-10-17T01:51:43.940Z,88.50
2017-10-17T01:54:22.933Z,88.50
2017-10-17T01:56:51.240Z,88.30
2017-10-17T01:59:25.543Z,88.30
2017-10-17T02:01:53.852Z,88.30
2017-10-17T02:04:21.339Z,88.40
2017-10-17T02:06:48.824Z,88.10
2017-10-17T02:09:16.320Z,88.30
2017-10-17T02:11:43.797Z,88.20
2017-10-17T02:14:11.295Z,88.30
2017-10-17T02:16:39.535Z,88.40
2017-10-17T02:19:10.769Z,88.40
2017-10-17T02:21:48.178Z,89.00
2017-10-17T02:24:25.687Z,88.50
2017-10-17T02:26:53.953Z,88.80
2017-10-17T02:32:21.856Z,88.60
2017-10-17T02:37:47.693Z,88.60
2017-10-17T02:40:15.980Z,88.80
2017-10-17T02:42:44.230Z,88.80
2017-10-17T02:45:11.819Z,88.80
2017-10-17T02:47:41.501Z,88.80
2017-10-17T02:50:10.531Z,88.70
2017-10-17T02:52:40.728Z,88.60
2017-10-17T02:55:08.222Z,88.60
2017-10-17T02:57:35.727Z,88.80
2017-10-17T03:00:04.102Z,88.90
2017-10-17T03:02:35.287Z,88.80
2017-10-17T03:05:07.953Z,88.90
2017-10-17T03:07:36.337Z,88.80
2017-10-17T03:10:04.644Z,88.80
2017-10-17T03:12:32.119Z,88.80
2017-10-17T03:15:10.392Z,88.90
2017-10-17T03:17:38.671Z,88.90
2017-10-17T03:20:06.194Z,88.90
2017-10-17T03:22:33.675Z,88.90
2017-10-17T03:25:04.836Z,89.10
2017-10-17T03:27:33.080Z,89.00
2017-10-17T03:30:00.560Z,89.00
2017-10-17T03:32:28.811Z,89.20
2017-10-17T03:34:57.127Z,89.10
2017-10-17T03:37:41.213Z,89.50
2017-10-17T03:40:14.131Z,89.50
2017-10-17T03:45:42.511Z,90.00
2017-10-17T03:48:11.835Z,89.90
2017-10-17T03:50:39.388Z,90.20
2017-10-17T03:53:14.811Z,90.60
2017-10-17T03:55:42.291Z,90.30
2017-10-17T03:58:09.774Z,90.40
2017-10-17T04:00:38.032Z,90.70
2017-10-17T04:03:06.439Z,90.70
2017-10-17T04:08:36.116Z,90.70
2017-10-17T04:11:07.267Z,90.70
2017-10-17T04:13:38.375Z,90.70
2017-10-17T04:19:40.425Z,90.80
2017-10-17T04:22:11.438Z,90.90
2017-10-17T04:24:53.579Z,90.90
2017-10-17T04:30:29.206Z,90.90
2017-10-17T04:33:16.175Z,90.90
2017-10-17T04:35:43.752Z,90.90
2017-10-17T04:38:11.232Z,90.80
2017-10-17T04:40:38.722Z,90.80
2017-10-17T04:43:31.687Z,90.80
2017-10-17T04:46:13.784Z,91.00
2017-10-17T04:48:51.299Z,90.80
2017-10-17T04:51:28.168Z,90.80
2017-10-17T04:54:08.021Z,90.90
2017-10-17T04:56:36.265Z,90.90
2017-10-17T04:59:15.697Z,90.90
2017-10-17T05:01:46.895Z,90.80
2017-10-17T05:04:21.388Z,90.90
2017-10-17T05:06:49.632Z,91.00
2017-10-17T05:09:27.575Z,90.90
2017-10-17T05:11:55.851Z,91.00
2017-10-17T05:14:30.717Z,90.70
2017-10-17T05:17:09.040Z,90.70
2017-10-17T05:22:45.045Z,90.80
2017-10-17T05:25:26.335Z,90.80
2017-10-17T05:28:18.234Z,90.80
2017-10-17T05:30:49.414Z,90.80
2017-10-17T05:36:34.384Z,90.70
2017-10-17T05:39:01.863Z,90.80
2017-10-17T05:41:29.337Z,90.80
2017-10-17T05:44:03.603Z,90.90
2017-10-17T05:46:31.084Z,90.90
2017-10-17T05:48:59.360Z,90.90
2017-10-17T05:51:26.864Z,90.90
2017-10-17T05:53:54.349Z,90.90
2017-10-17T05:56:21.825Z,90.80
2017-10-17T05:58:49.319Z,91.00
2017-10-17T06:01:17.574Z,91.10
2017-10-17T06:03:45.074Z,91.10
2017-10-17T06:06:12.557Z,91.10
2017-10-17T06:08:40.110Z,91.20
2017-10-17T06:11:07.634Z,91.50
2017-10-17T06:13:35.901Z,91.20
2017-10-17T06:16:03.404Z,91.20
2017-10-17T06:18:30.884Z,91.00
2017-10-17T06:20:58.377Z,91.20
2017-10-17T06:23:25.872Z,91.20
2017-10-17T06:25:53.388Z,91.10
2017-10-17T06:28:20.887Z,91.20
2017-10-17T06:30:48.579Z,91.10
2017-10-17T06:33:16.056Z,90.90
2017-10-17T06:35:43.539Z,90.80
2017-10-17T06:38:11.788Z,90.70
2017-10-17T06:40:39.299Z,90.70
2017-10-17T06:43:06.781Z,90.70
2017-10-17T06:45:34.264Z,90.60
2017-10-17T06:48:01.756Z,90.60
2017-10-17T06:50:30.022Z,90.70
2017-10-17T06:52:58.288Z,90.60
2017-10-17T06:55:25.772Z,90.50
2017-10-17T06:57:54.029Z,90.50
2017-10-17T07:00:23.024Z,90.40
2017-10-17T07:02:51.276Z,90.40
2017-10-17T07:05:18.772Z,90.30
2017-10-17T07:07:47.016Z,90.30
2017-10-17T07:10:14.512Z,90.30
2017-10-17T07:12:42.780Z,90.40
2017-10-17T07:15:11.092Z,90.30
2017-10-17T07:17:38.619Z,90.30
2017-10-17T07:20:06.876Z,90.20
2017-10-17T07:22:34.358Z,90.20
2017-10-17T07:25:02.622Z,90.20
2017-10-17T07:27:30.876Z,90.20
2017-10-17T07:29:58.383Z,90.20
2017-10-17T07:32:25.867Z,90.10
2017-10-17T07:34:53.351Z,90.10
2017-10-17T07:37:20.844Z,90.00
2017-10-17T07:39:49.111Z,90.00
2017-10-17T07:42:17.377Z,90.00
2017-10-17T07:44:46.360Z,90.00
2017-10-17T07:47:13.857Z,90.00
2017-10-17T07:49:42.123Z,90.00
2017-10-17T07:52:10.368Z,90.00
2017-10-17T07:54:37.871Z,89.90
2017-10-17T07:57:06.115Z,89.90
2017-10-17T07:59:33.599Z,89.90
2017-10-17T08:02:01.856Z,89.90
2017-10-17T08:04:29.336Z,89.80
2017-10-17T08:06:57.621Z,89.40
2017-10-17T08:09:25.100Z,89.40
2017-10-17T08:11:52.589Z,89.40
2017-10-17T08:14:20.083Z,89.30
2017-10-17T08:16:48.337Z,89.00
2017-10-17T08:19:17.336Z,88.90
2017-10-17T08:21:44.815Z,88.80
2017-10-17T08:24:13.059Z,88.60
2017-10-17T08:26:40.553Z,88.60
2017-10-17T08:29:08.031Z,88.50
2017-10-17T08:31:35.597Z,88.40
2017-10-17T08:34:03.081Z,88.40
2017-10-17T08:36:30.565Z,88.50
2017-10-17T08:38:58.885Z,88.30
2017-10-17T08:41:26.368Z,88.30
2017-10-17T08:43:53.893Z,88.00
2017-10-17T08:46:21.363Z,87.90
2017-10-17T08:48:48.840Z,88.10
2017-10-17T08:51:16.336Z,87.70
2017-10-17T08:53:44.595Z,87.60
2017-10-17T08:56:12.096Z,87.60
2017-10-17T08:58:40.360Z,87.50
2017-10-17T09:01:08.603Z,87.30
2017-10-17T09:03:36.096Z,87.20
2017-10-17T09:06:04.343Z,87.30
2017-10-17T09:08:32.614Z,87.50
2017-10-17T09:11:00.106Z,87.50
2017-10-17T09:13:28.365Z,86.70
2017-10-17T09:15:57.382Z,86.70
2017-10-17T09:18:25.628Z,86.50
2017-10-17T09:20:53.127Z,86.40
2017-10-17T09:23:20.606Z,86.10
2017-10-17T09:25:48.084Z,86.30
2017-10-17T09:28:15.584Z,86.30
2017-10-17T09:30:43.850Z,86.10
2017-10-17T09:33:11.351Z,86.00
2017-10-17T09:35:38.877Z,86.60
2017-10-17T09:38:07.127Z,86.00
2017-10-17T09:40:34.645Z,85.80
2017-10-17T09:43:02.143Z,86.10
2017-10-17T09:45:29.632Z,86.10
2017-10-17T09:47:57.882Z,85.90
2017-10-17T09:50:25.392Z,85.90
2017-10-17T09:52:52.884Z,85.60
2017-10-17T09:55:20.374Z,85.60
2017-10-17T09:57:48.644Z,85.50
2017-10-17T10:00:17.633Z,85.20
2017-10-17T10:02:46.642Z,85.30
2017-10-17T10:05:14.892Z,85.20
2017-10-17T10:07:42.400Z,85.20
2017-10-17T10:10:09.880Z,85.40
2017-10-17T10:12:37.364Z,85.20
2017-10-17T10:15:04.851Z,84.80
2017-10-17T10:17:33.117Z,84.30
2017-10-17T10:20:01.373Z,84.00
2017-10-17T10:22:28.880Z,83.90
2017-10-17T10:24:57.138Z,83.20
2017-10-17T10:27:25.400Z,83.00
2017-10-17T10:29:52.900Z,82.80
2017-10-17T10:32:20.471Z,83.00
2017-10-17T10:34:47.951Z,82.80
2017-10-17T10:37:15.490Z,82.60
2017-10-17T10:39:42.980Z,82.60
2017-10-17T10:42:10.475Z,83.20
2017-10-17T10:44:38.736Z,82.80
2017-10-17T10:47:06.227Z,82.80
2017-10-17T10:49:33.740Z,82.40
2017-10-17T10:52:01.223Z,82.40
2017-10-17T10:54:28.716Z,82.60
2017-10-17T10:56:56.200Z,82.50
2017-10-17T10:59:23.736Z,82.30
2017-10-17T11:01:51.244Z,82.50
2017-10-17T11:04:19.496Z,82.30
2017-10-17T11:06:46.995Z,82.30
2017-10-17T11:09:15.234Z,83.00
2017-10-17T11:11:42.728Z,82.40
2017-10-17T11:14:10.981Z,82.50
2017-10-17T11:16:38.479Z,82.50
2017-10-17T11:19:06.719Z,82.50
2017-10-17T11:21:34.196Z,82.50
2017-10-17T11:24:02.510Z,82.40
2017-10-17T11:26:30.003Z,83.00
2017-10-17T11:28:57.629Z,82.10
2017-10-17T11:31:25.131Z,81.60
2017-10-17T11:33:52.636Z,81.90
2017-10-17T11:36:20.116Z,81.60
2017-10-17T11:38:47.593Z,81.90
2017-10-17T11:44:17.992Z,81.50
2017-10-17T11:46:46.356Z,81.40
2017-10-17T11:49:14.606Z,81.60
2017-10-17T11:51:42.103Z,81.50
2017-10-17T11:54:10.348Z,82.00
2017-10-17T11:56:37.868Z,81.40
2017-10-17T11:59:05.352Z,81.50
2017-10-17T12:01:32.836Z,81.20
2017-10-17T12:04:01.115Z,80.90
2017-10-17T12:06:29.376Z,80.70
2017-10-17T12:08:56.870Z,80.70
2017-10-17T12:11:24.536Z,81.20
2017-10-17T12:13:52.040Z,80.60
2017-10-17T12:16:19.543Z,80.40
2017-10-17T12:18:47.031Z,79.90
2017-10-17T12:21:14.528Z,79.80
2017-10-17T12:23:42.013Z,79.60
2017-10-17T12:26:10.268Z,79.50
2017-10-17T12:28:37.749Z,79.50
2017-10-17T12:31:06.103Z,78.80
2017-10-17T12:33:33.596Z,78.70
2017-10-17T12:36:01.847Z,78.00
2017-10-17T12:38:29.345Z,77.90
2017-10-17T12:40:56.847Z,77.90
2017-10-17T12:43:24.343Z,78.20
2017-10-17T12:45:52.592Z,78.20
2017-10-17T12:48:20.101Z,78.20
2017-10-17T12:50:47.592Z,78.10
2017-10-17T12:53:15.100Z,78.10
2017-10-17T12:55:43.384Z,78.10
2017-10-17T12:58:10.863Z,78.00
2017-10-17T13:00:38.351Z,78.50
2017-10-17T13:03:05.871Z,78.40
2017-10-17T13:05:33.376Z,78.20
2017-10-17T13:08:00.852Z,78.20
2017-10-17T13:10:29.103Z,77.40
2017-10-17T13:12:56.599Z,77.40
2017-10-17T13:15:24.847Z,76.90
2017-10-17T13:17:52.436Z,77.00
2017-10-17T13:20:20.691Z,76.70
2017-10-17T13:22:48.195Z,76.70
2017-10-17T13:25:15.696Z,76.80
2017-10-17T13:27:43.172Z,76.30
2017-10-17T13:30:10.744Z,75.60
2017-10-17T13:32:38.983Z,75.20
2017-10-17T13:35:06.476Z,75.10
2017-10-17T13:37:34.719Z,75.00
2017-10-17T13:40:02.229Z,75.00
2017-10-17T13:42:29.704Z,74.80
2017-10-17T13:44:57.183Z,74.20
2017-10-17T13:47:24.675Z,74.50
2017-10-17T13:49:52.170Z,74.20
2017-10-17T13:52:19.673Z,75.40
2017-10-17T13:54:47.155Z,74.20
2017-10-17T13:57:15.423Z,74.90
2017-10-17T13:59:42.913Z,74.10
2017-10-17T14:02:10.399Z,74.70
2017-10-17T14:04:37.888Z,75.40
2017-10-17T14:07:05.371Z,75.50
2017-10-17T14:09:33.651Z,75.30
2017-10-17T14:12:01.900Z,76.20
2017-10-17T14:14:41.956Z,76.20
2017-10-17T14:17:09.447Z,76.00
2017-10-17T14:19:37.691Z,77.00
2017-10-17T14:22:05.188Z,77.00
2017-10-17T14:24:32.668Z,77.50
2017-10-17T14:27:00.935Z,78.60
2017-10-17T14:29:28.415Z,78.60
2017-10-17T14:31:55.920Z,78.90
2017-10-17T14:34:24.160Z,79.50
2017-10-17T14:36:51.636Z,79.40
2017-10-17T14:39:19.135Z,79.60
2017-10-17T14:41:46.613Z,80.30
2017-10-17T14:44:14.148Z,80.60
2017-10-17T14:46:42.478Z,80.80
2017-10-17T14:49:09.966Z,80.90
2017-10-17T14:51:38.233Z,81.80
2017-10-17T14:54:05.711Z,81.70
2017-10-17T14:56:33.977Z,81.50
2017-10-17T14:59:02.235Z,81.60
2017-10-17T15:01:29.732Z,81.50
2017-10-17T15:03:57.223Z,81.90
2017-10-17T15:06:24.701Z,82.50
2017-10-17T15:08:52.199Z,82.20
2017-10-17T15:11:20.448Z,82.50
2017-10-17T15:13:47.923Z,82.60
2017-10-17T15:16:16.177Z,83.30
2017-10-17T15:18:43.682Z,83.20
2017-10-17T15:21:11.161Z,83.30
2017-10-17T15:23:38.672Z,83.50
2017-10-17T15:26:06.936Z,83.90
2017-10-17T15:28:34.476Z,83.90
2017-10-17T15:31:02.005Z,83.90
2017-10-17T15:33:29.521Z,84.00
2017-10-17T15:35:57.822Z,84.10
2017-10-17T15:38:25.298Z,84.10
2017-10-17T15:40:52.780Z,84.30
2017-10-17T15:43:20.288Z,84.80
2017-10-17T15:45:48.536Z,84.80
2017-10-17T15:48:16.051Z,84.90
2017-10-17T15:50:43.532Z,85.00
2017-10-17T15:53:11.017Z,85.30
2017-10-17T15:55:38.520Z,85.40
2017-10-17T15:58:05.996Z,85.30
2017-10-17T16:00:33.491Z,85.80
2017-10-17T16:03:00.967Z,85.80
2017-10-17T16:05:29.216Z,86.40
2017-10-17T16:07:56.724Z,86.20
2017-10-17T16:10:24.224Z,86.50
2017-10-17T16:12:51.712Z,86.70
2017-10-17T16:15:19.209Z,87.10
2017-10-17T16:17:46.704Z,87.10
2017-10-17T16:20:14.196Z,87.40
2017-10-17T16:22:42.460Z,88.00
2017-10-17T16:25:10.045Z,88.00
2017-10-17T16:27:37.539Z,88.00
2017-10-17T16:30:05.040Z,88.30
2017-10-17T16:32:32.516Z,88.40
2017-10-17T16:35:00.780Z,89.10
2017-10-17T16:37:29.036Z,89.50
2017-10-17T16:39:58.028Z,89.30
2017-10-17T16:42:25.621Z,89.30
2017-10-17T16:44:53.864Z,89.80
2017-10-17T16:47:21.380Z,89.80
2017-10-17T16:49:48.864Z,90.00
2017-10-17T16:52:16.386Z,90.10
2017-10-17T16:54:43.960Z,90.30
2017-10-17T16:57:11.447Z,90.30
2017-10-17T16:59:39.735Z,90.40
2017-10-17T17:02:07.217Z,90.50
2017-10-17T17:04:35.478Z,90.70
2017-10-17T17:07:03.808Z,90.70
2017-10-17T17:09:31.306Z,90.70
2017-10-17T17:11:58.805Z,90.90
2017-10-17T17:14:27.049Z,91.00
2017-10-17T17:16:54.545Z,91.00
2017-10-17T17:19:22.024Z,91.10
2017-10-17T17:21:49.532Z,91.10
2017-10-17T17:24:17.024Z,91.10
2017-10-17T17:26:44.544Z,91.20
2017-10-17T17:29:12.099Z,91.20
2017-10-17T17:31:39.594Z,91.10
2017-10-17T17:34:08.788Z,91.40
2017-10-17T17:36:36.283Z,91.40
2017-10-17T17:39:03.784Z,91.90
2017-10-17T17:41:32.056Z,91.60
2017-10-17T17:43:59.571Z,91.60
2017-10-17T17:46:27.060Z,91.50
2017-10-17T17:48:54.540Z,91.70
2017-10-17T17:51:22.900Z,91.90
2017-10-17T17:53:50.380Z,91.80
2017-10-17T17:56:18.668Z,92.00
2017-10-17T17:58:46.920Z,92.00
2017-10-17T18:01:15.187Z,92.10
2017-10-17T18:03:42.665Z,92.10
2017-10-17T18:06:10.146Z,92.10
2017-10-17T18:08:38.399Z,92.10
2017-10-17T18:11:06.659Z,92.20
2017-10-17T18:13:34.175Z,92.20
2017-10-17T18:16:01.678Z,92.30
2017-10-17T18:18:29.163Z,92.30
2017-10-17T18:20:57.423Z,92.40
2017-10-17T18:23:24.913Z,92.40
2017-10-17T18:25:52.435Z,92.40
2017-10-17T18:28:19.928Z,92.40
2017-10-17T18:30:48.172Z,92.50
2017-10-17T18:33:16.455Z,92.80
2017-10-17T18:35:44.699Z,92.70
2017-10-17T18:38:12.205Z,92.70
2017-10-17T18:40:40.452Z,92.80
2017-10-17T18:43:07.932Z,92.80
2017-10-17T18:45:36.208Z,92.90
2017-10-17T18:48:04.451Z,93.20
2017-10-17T18:50:31.943Z,93.00
2017-10-17T18:53:00.193Z,93.10
2017-10-17T18:55:27.703Z,93.10
2017-10-17T18:57:55.205Z,93.10
2017-10-17T19:00:22.695Z,93.30
2017-10-17T19:02:50.991Z,93.60
2017-10-17T19:05:18.472Z,93.60
2017-10-17T19:07:45.959Z,93.60
2017-10-17T19:10:13.465Z,93.70
2017-10-17T19:12:41.716Z,94.00
2017-10-17T19:15:09.986Z,94.30
2017-10-17T19:17:38.990Z,94.00
2017-10-17T19:20:07.296Z,94.20
2017-10-17T19:22:34.795Z,94.10
2017-10-17T19:25:03.062Z,94.30
2017-10-17T19:27:30.544Z,94.30
2017-10-17T19:29:58.048Z,94.40
2017-10-17T19:32:25.555Z,94.20
2017-10-17T19:34:53.052Z,94.20
2017-10-17T19:37:21.317Z,94.40
2017-10-17T19:39:49.611Z,94.40
2017-10-17T19:42:17.866Z,94.50
2017-10-17T19:44:45.344Z,94.50
2017-10-17T19:47:13.600Z,94.40
2017-10-17T19:49:41.897Z,94.50
2017-10-17T19:52:10.172Z,94.50
2017-10-17T19:54:38.424Z,94.70
2017-10-17T19:57:05.909Z,94.70
2017-10-17T19:59:34.176Z,94.90
2017-10-17T20:02:02.431Z,94.80
2017-10-17T20:04:29.946Z,94.80
2017-10-17T20:06:57.428Z,94.80
2017-10-17T20:09:24.946Z,94.90
2017-10-17T20:11:52.453Z,95.00
2017-10-17T20:14:19.939Z,95.00
2017-10-17T20:16:48.203Z,95.00
2017-10-17T20:19:15.900Z,95.00
2017-10-17T20:21:43.441Z,95.00
2017-10-17T20:24:11.772Z,95.10
2017-10-17T20:26:39.255Z,95.00
2017-10-17T20:29:06.840Z,95.10
2017-10-17T20:31:35.084Z,95.30
2017-10-17T20:34:02.585Z,95.10
2017-10-17T20:36:30.173Z,95.10
2017-10-17T20:38:57.759Z,95.10
2017-10-17T20:41:25.259Z,95.20
2017-10-17T20:43:54.223Z,95.10
2017-10-17T20:46:21.712Z,95.30
2017-10-17T20:48:49.972Z,95.30
2017-10-17T20:51:18.986Z,95.10
2017-10-17T20:53:47.261Z,95.20
2017-10-17T20:56:15.509Z,95.20
2017-10-17T20:58:43.873Z,95.30
2017-10-17T21:01:11.370Z,95.30
2017-10-17T21:03:38.882Z,95.20
2017-10-17T21:06:06.461Z,95.50
2017-10-17T21:08:33.968Z,95.40
2017-10-17T21:11:01.478Z,95.20
2017-10-17T21:13:29.072Z,95.10
2017-10-17T21:15:56.567Z,95.10
2017-10-17T21:18:24.079Z,95.10
2017-10-17T21:20:52.327Z,95.10
2017-10-17T21:23:19.848Z,95.10
2017-10-17T21:25:47.380Z,95.20
2017-10-17T21:28:15.790Z,95.10
2017-10-17T21:30:44.067Z,95.10
2017-10-17T21:33:11.642Z,95.20
2017-10-17T21:35:39.171Z,95.30
2017-10-17T21:38:06.668Z,95.20
2017-10-17T21:40:34.160Z,95.30
2017-10-17T21:43:02.421Z,95.40
2017-10-17T21:45:29.911Z,95.30
2017-10-17T21:47:58.158Z,95.60
2017-10-17T21:50:25.677Z,95.60
2017-10-17T21:52:53.159Z,95.50
2017-10-17T21:55:20.687Z,95.40
2017-10-17T21:57:48.169Z,95.40
2017-10-17T22:00:15.656Z,95.40
2017-10-17T22:02:43.156Z,95.30
2017-10-17T22:05:10.640Z,95.20
2017-10-17T22:07:38.156Z,95.10
2017-10-17T22:10:06.428Z,95.10
2017-10-17T22:12:34.022Z,95.10
2017-10-17T22:15:01.507Z,95.10
2017-10-17T22:17:28.996Z,95.10
2017-10-17T22:19:57.296Z,95.20
2017-10-17T22:22:25.551Z,95.10
2017-10-17T22:24:53.836Z,95.30
2017-10-17T22:27:22.080Z,95.20
2017-10-17T22:29:49.588Z,95.20
2017-10-17T22:32:17.096Z,95.50
2017-10-17T22:34:44.579Z,95.10
2017-10-17T22:37:12.839Z,95.20
2017-10-17T22:39:40.338Z,95.20
2017-10-17T22:42:07.830Z,95.30
2017-10-17T22:44:35.345Z,95.40
2017-10-17T22:47:03.628Z,95.40
2017-10-17T22:49:31.910Z,95.40
2017-10-17T22:52:00.151Z,95.40
2017-10-17T22:54:27.643Z,95.40
2017-10-17T22:56:55.890Z,95.50
2017-10-17T22:59:23.428Z,95.50
2017-10-17T23:01:50.921Z,95.50
2017-10-17T23:04:19.173Z,95.50
2017-10-17T23:06:46.672Z,95.40
2017-10-17T23:09:14.916Z,95.40
2017-10-17T23:11:42.419Z,95.40
2017-10-17T23:14:09.909Z,95.40
2017-10-17T23:16:37.443Z,95.40
2017-10-17T23:19:16.923Z,95.30
2017-10-17T23:21:44.427Z,95.30
2017-10-17T23:24:11.912Z,95.20
2017-10-17T23:26:39.403Z,95.20
2017-10-17T23:29:06.992Z,95.30
2017-10-17T23:31:34.496Z,95.30
2017-10-17T23:34:01.988Z,95.20
2017-10-17T23:36:29.519Z,95.20
2017-10-17T23:38:57.024Z,95.20
2017-10-17T23:41:25.308Z,95.20
2017-10-17T23:43:53.556Z,95.30
2017-10-17T23:46:21.136Z,95.20
2017-10-17T23:48:49.385Z,95.20
2017-10-17T23:51:16.876Z,95.50
2017-10-17T23:53:45.121Z,95.30
2017-10-17T23:56:12.640Z,95.30
2017-10-17T23:58:40.125Z,95.30
